createdAt,value
2023-03-29T00:00:02.267Z,-0.7
2023-03-29T00:01:02.306Z,-0.6
2023-03-29T00:02:01.387Z,-0.6
2023-03-29T00:03:01.476Z,-0.6
2023-03-29T00:04:02.714Z,-0.6
2023-03-29T00:05:02.075Z,-0.6
2023-03-29T00:06:02.000Z,-0.6
2023-03-29T00:07:01.841Z,-0.5
2023-03-29T00:08:01.751Z,-0.5
2023-03-29T00:09:01.982Z,-0.5
2023-03-29T00:10:01.674Z,-0.5
2023-03-29T00:11:01.687Z,-0.5
2023-03-29T00:12:01.646Z,-0.5
2023-03-29T00:13:01.430Z,-0.5
2023-03-29T00:14:01.417Z,-0.5
2023-03-29T00:15:01.327Z,-0.5
2023-03-29T00:16:01.366Z,-0.6
2023-03-29T00:17:02.363Z,-0.7
2023-03-29T00:18:02.267Z,-0.8
2023-03-29T00:19:02.229Z,-0.7
2023-03-29T00:20:02.149Z,-0.7
2023-03-29T00:21:02.378Z,-0.8
2023-03-29T00:22:01.732Z,-0.9
2023-03-29T00:23:01.704Z,-0.8
2023-03-29T00:24:01.617Z,-0.8
2023-03-29T00:25:01.601Z,-0.8
2023-03-29T00:26:01.507Z,-0.9
2023-03-29T00:27:01.566Z,-0.9
2023-03-29T00:28:01.449Z,-1
2023-03-29T00:29:01.470Z,-1
2023-03-29T00:30:01.325Z,-1
2023-03-29T00:31:02.549Z,-1.1
2023-03-29T00:32:01.683Z,-1.1
2023-03-29T00:33:01.762Z,-1.1
2023-03-29T00:34:01.604Z,-1.1
2023-03-29T00:35:01.645Z,-1.1
2023-03-29T00:36:01.521Z,-1.1
2023-03-29T00:37:01.603Z,-1.2
2023-03-29T00:38:01.485Z,-1.1
2023-03-29T00:39:01.542Z,-1.1
2023-03-29T00:40:01.350Z,-1
2023-03-29T00:41:01.594Z,-1.1
2023-03-29T00:42:02.088Z,-1.1
2023-03-29T00:43:02.067Z,-1.2
2023-03-29T00:44:02.198Z,-1.2
2023-03-29T00:45:01.931Z,-1.3
2023-03-29T00:46:01.996Z,-1.3
2023-03-29T00:47:01.770Z,-1.1
2023-03-29T00:48:01.849Z,-1.1
2023-03-29T00:49:01.688Z,-1.2
2023-03-29T00:50:01.775Z,-1.3
2023-03-29T00:51:01.754Z,-1.3
2023-03-29T00:52:02.162Z,-1.4
2023-03-29T00:53:02.228Z,-1.3
2023-03-29T00:54:02.046Z,-1.2
2023-03-29T00:55:02.103Z,-1.2
2023-03-29T00:56:01.891Z,-1.2
2023-03-29T00:57:01.898Z,-1.3
2023-03-29T00:58:01.915Z,-1.3
2023-03-29T00:59:01.798Z,-1.4
2023-03-29T01:00:01.944Z,-1.3
2023-03-29T01:01:02.216Z,-1.3
2023-03-29T01:02:01.664Z,-1.3
2023-03-29T01:03:01.770Z,-1.3
2023-03-29T01:04:01.723Z,-1.4
2023-03-29T01:05:01.721Z,-1.4
2023-03-29T01:06:01.539Z,-1.3
2023-03-29T01:07:01.631Z,-1.4
2023-03-29T01:08:01.442Z,-1.3
2023-03-29T01:09:01.502Z,-1.3
2023-03-29T01:10:01.303Z,-1.3
2023-03-29T01:11:02.565Z,-1.4
2023-03-29T01:12:01.287Z,-1.4
2023-03-29T01:13:02.295Z,-1.3
2023-03-29T01:14:02.211Z,-1.4
2023-03-29T01:15:02.326Z,-1.4
2023-03-29T01:16:02.280Z,-1.3
2023-03-29T01:17:02.221Z,-1.4
2023-03-29T01:18:02.351Z,-1.3
2023-03-29T01:19:02.198Z,-1.4
2023-03-29T01:20:02.211Z,-1.3
2023-03-29T01:21:02.144Z,-1.4
2023-03-29T01:22:02.332Z,-1.5
2023-03-29T01:23:02.255Z,-1.4
2023-03-29T01:24:02.297Z,-1.4
2023-03-29T01:25:02.171Z,-1.4
2023-03-29T01:26:02.190Z,-1.5
2023-03-29T01:27:02.050Z,-1.4
2023-03-29T01:28:02.098Z,-1.4
2023-03-29T01:29:01.938Z,-1.4
2023-03-29T01:30:01.906Z,-1.4
2023-03-29T01:31:02.170Z,-1.5
2023-03-29T01:32:01.632Z,-1.6
2023-03-29T01:33:01.557Z,-1.5
2023-03-29T01:34:01.405Z,-1.5
2023-03-29T01:35:01.416Z,-1.5
2023-03-29T01:36:01.298Z,-1.5
2023-03-29T01:37:02.366Z,-1.6
2023-03-29T01:38:02.290Z,-1.5
2023-03-29T01:39:02.372Z,-1.6
2023-03-29T01:40:02.227Z,-1.6
2023-03-29T01:41:02.327Z,-1.6
2023-03-29T01:42:01.954Z,-1.8
2023-03-29T01:43:01.980Z,-1.7
2023-03-29T01:44:01.849Z,-1.8
2023-03-29T01:45:01.809Z,-1.7
2023-03-29T01:46:01.858Z,-1.6
2023-03-29T01:47:01.746Z,-1.7
2023-03-29T01:48:01.818Z,-1.7
2023-03-29T01:49:01.770Z,-1.7
2023-03-29T01:50:01.820Z,-1.7
2023-03-29T01:51:01.870Z,-1.7
2023-03-29T01:52:01.396Z,-1.7
2023-03-29T01:53:01.420Z,-1.7
2023-03-29T01:54:02.387Z,-1.7
2023-03-29T01:55:02.279Z,-1.8
2023-03-29T01:56:02.332Z,-1.7
2023-03-29T01:57:02.248Z,-1.7
2023-03-29T01:58:02.261Z,-1.8
2023-03-29T01:59:02.145Z,-1.7
2023-03-29T02:00:03.270Z,-1.8
2023-03-29T02:01:02.238Z,-1.7
2023-03-29T02:02:02.259Z,-1.8
2023-03-29T02:03:02.373Z,-1.8
2023-03-29T02:04:01.258Z,-1.8
2023-03-29T02:05:02.300Z,-1.7
2023-03-29T02:06:02.319Z,-1.7
2023-03-29T02:07:02.234Z,-1.8
2023-03-29T02:08:02.183Z,-1.8
2023-03-29T02:09:02.175Z,-1.8
2023-03-29T02:10:02.090Z,-1.7
2023-03-29T02:11:02.291Z,-1.8
2023-03-29T02:12:01.788Z,-1.8
2023-03-29T02:13:01.719Z,-1.8
2023-03-29T02:14:01.746Z,-1.8
2023-03-29T02:15:01.545Z,-1.8
2023-03-29T02:16:01.545Z,-1.9
2023-03-29T02:17:01.343Z,-1.7
2023-03-29T02:18:01.393Z,-1.6
2023-03-29T02:19:02.343Z,-1.6
2023-03-29T02:20:02.187Z,-1.6
2023-03-29T02:21:02.427Z,-1.8
2023-03-29T02:22:01.996Z,-1.8
2023-03-29T02:23:02.011Z,-1.7
2023-03-29T02:24:01.835Z,-1.8
2023-03-29T02:25:01.761Z,-1.8
2023-03-29T02:26:01.828Z,-1.8
2023-03-29T02:27:01.693Z,-1.9
2023-03-29T02:28:01.746Z,-1.9
2023-03-29T02:29:01.619Z,-1.9
2023-03-29T02:30:01.660Z,-1.8
2023-03-29T02:31:01.702Z,-1.8
2023-03-29T02:32:02.028Z,-1.9
2023-03-29T02:33:02.231Z,-1.9
2023-03-29T02:34:02.224Z,-2
2023-03-29T02:35:02.066Z,-1.9
2023-03-29T02:36:02.141Z,-1.8
2023-03-29T02:37:01.964Z,-1.8
2023-03-29T02:38:01.900Z,-1.8
2023-03-29T02:39:01.976Z,-1.8
2023-03-29T02:40:01.795Z,-1.8
2023-03-29T02:41:01.995Z,-1.8
2023-03-29T02:42:01.465Z,-1.8
2023-03-29T02:43:01.512Z,-1.8
2023-03-29T02:44:01.338Z,-1.9
2023-03-29T02:45:01.719Z,-1.8
2023-03-29T02:46:01.575Z,-1.8
2023-03-29T02:47:02.122Z,-1.8
2023-03-29T02:48:02.166Z,-2
2023-03-29T02:49:01.977Z,-1.8
2023-03-29T02:50:01.921Z,-1.8
2023-03-29T02:51:02.002Z,-1.9
2023-03-29T02:52:01.402Z,-1.8
2023-03-29T02:53:01.461Z,-1.9
2023-03-29T02:54:01.313Z,-1.8
2023-03-29T02:55:02.393Z,-1.8
2023-03-29T02:56:02.341Z,-1.9
2023-03-29T02:57:02.383Z,-1.9
2023-03-29T02:58:02.178Z,-1.9
2023-03-29T02:59:02.211Z,-1.9
2023-03-29T03:00:02.108Z,-1.9
2023-03-29T03:01:02.426Z,-1.8
2023-03-29T03:02:01.743Z,-1.8
2023-03-29T03:03:02.134Z,-1.9
2023-03-29T03:04:02.292Z,-1.8
2023-03-29T03:05:02.190Z,-1.8
2023-03-29T03:06:02.264Z,-1.9
2023-03-29T03:07:02.158Z,-1.8
2023-03-29T03:08:02.167Z,-2
2023-03-29T03:09:02.062Z,-1.8
2023-03-29T03:10:02.164Z,-1.8
2023-03-29T03:11:02.109Z,-1.9
2023-03-29T03:12:01.932Z,-1.9
2023-03-29T03:13:01.985Z,-1.8
2023-03-29T03:14:01.832Z,-1.9
2023-03-29T03:15:01.805Z,-2
2023-03-29T03:16:01.881Z,-2
2023-03-29T03:17:03.994Z,-2
2023-03-29T03:18:01.601Z,-1.9
2023-03-29T03:19:01.611Z,-1.9
2023-03-29T03:20:01.414Z,-1.9
2023-03-29T03:21:01.668Z,-1.9
2023-03-29T03:22:01.365Z,-1.9
2023-03-29T03:23:01.396Z,-1.9
2023-03-29T03:24:02.707Z,-1.9
2023-03-29T03:25:01.326Z,-1.9
2023-03-29T03:26:01.390Z,-1.9
2023-03-29T03:27:02.329Z,-1.9
2023-03-29T03:28:02.202Z,-1.9
2023-03-29T03:29:02.200Z,-1.8
2023-03-29T03:30:02.099Z,-1.9
2023-03-29T03:31:02.300Z,-2
2023-03-29T03:32:01.604Z,-1.8
2023-03-29T03:33:01.666Z,-1.9
2023-03-29T03:34:01.486Z,-1.8
2023-03-29T03:35:01.546Z,-1.9
2023-03-29T03:36:01.498Z,-1.9
2023-03-29T03:37:01.453Z,-1.9
2023-03-29T03:38:01.314Z,-1.9
2023-03-29T03:39:02.381Z,-1.9
2023-03-29T03:40:02.281Z,-2
2023-03-29T03:41:02.542Z,-2
2023-03-29T03:42:01.752Z,-1.9
2023-03-29T03:43:01.830Z,-1.9
2023-03-29T03:44:01.603Z,-1.9
2023-03-29T03:45:01.631Z,-2
2023-03-29T03:46:01.553Z,-2
2023-03-29T03:47:01.569Z,-2.1
2023-03-29T03:48:01.678Z,-2.1
2023-03-29T03:49:01.494Z,-2.1
2023-03-29T03:50:01.483Z,-2.1
2023-03-29T03:51:01.456Z,-2
2023-03-29T03:52:01.917Z,-2.1
2023-03-29T03:53:01.901Z,-2.1
2023-03-29T03:54:01.785Z,-2.1
2023-03-29T03:55:01.744Z,-2.1
2023-03-29T03:56:01.806Z,-2
2023-03-29T03:57:01.696Z,-2.1
2023-03-29T03:58:01.664Z,-2.1
2023-03-29T03:59:01.537Z,-2.2
2023-03-29T04:00:02.519Z,-2.1
2023-03-29T04:01:01.676Z,-2
2023-03-29T04:02:02.229Z,-2.1
2023-03-29T04:03:02.442Z,-2.1
2023-03-29T04:04:01.751Z,-2.2
2023-03-29T04:05:01.789Z,-2.1
2023-03-29T04:06:01.626Z,-2.2
2023-03-29T04:07:01.705Z,-2.1
2023-03-29T04:08:01.580Z,-2.2
2023-03-29T04:09:01.599Z,-2.2
2023-03-29T04:10:01.398Z,-2.2
2023-03-29T04:11:01.609Z,-2.2
2023-03-29T04:12:01.843Z,-2.1
2023-03-29T04:13:01.787Z,-2.2
2023-03-29T04:14:01.841Z,-2.1
2023-03-29T04:15:01.657Z,-2.2
2023-03-29T04:16:02.005Z,-2.2
2023-03-29T04:17:01.602Z,-2.2
2023-03-29T04:18:01.682Z,-2.1
2023-03-29T04:19:01.845Z,-2.1
2023-03-29T04:20:01.668Z,-2.1
2023-03-29T04:21:01.834Z,-2.1
2023-03-29T04:22:02.086Z,-2.2
2023-03-29T04:23:02.056Z,-2.2
2023-03-29T04:24:02.138Z,-2.2
2023-03-29T04:25:02.022Z,-2.2
2023-03-29T04:26:01.989Z,-2.2
2023-03-29T04:27:01.983Z,-2.1
2023-03-29T04:28:01.860Z,-2.2
2023-03-29T04:29:01.834Z,-2.3
2023-03-29T04:30:01.839Z,-2.2
2023-03-29T04:31:01.958Z,-2.2
2023-03-29T04:32:02.281Z,-2.2
2023-03-29T04:33:02.378Z,-2.2
2023-03-29T04:34:02.223Z,-2.2
2023-03-29T04:35:02.241Z,-2.2
2023-03-29T04:36:02.220Z,-2.1
2023-03-29T04:37:02.204Z,-2.1
2023-03-29T04:38:02.071Z,-2.1
2023-03-29T04:39:02.132Z,-2.1
2023-03-29T04:40:01.969Z,-2.1
2023-03-29T04:41:02.014Z,-2.1
2023-03-29T04:42:01.433Z,-2.1
2023-03-29T04:43:01.284Z,-2
2023-03-29T04:44:02.347Z,-2.1
2023-03-29T04:45:02.224Z,-2.1
2023-03-29T04:46:02.307Z,-2.1
2023-03-29T04:47:01.841Z,-2
2023-03-29T04:48:01.929Z,-2
2023-03-29T04:49:01.777Z,-2
2023-03-29T04:50:01.744Z,-2
2023-03-29T04:51:01.930Z,-2
2023-03-29T04:52:02.384Z,-2
2023-03-29T04:53:02.252Z,-2
2023-03-29T04:54:02.287Z,-2
2023-03-29T04:55:02.161Z,-2
2023-03-29T04:56:02.195Z,-1.9
2023-03-29T04:57:02.087Z,-1.9
2023-03-29T04:58:02.127Z,-1.9
2023-03-29T04:59:01.998Z,-2
2023-03-29T05:00:01.990Z,-2
2023-03-29T05:01:02.317Z,-2
2023-03-29T05:02:01.735Z,-2
2023-03-29T05:03:01.697Z,-1.9
2023-03-29T05:04:01.629Z,-1.9
2023-03-29T05:05:01.578Z,-1.9
2023-03-29T05:06:01.429Z,-2
2023-03-29T05:07:01.500Z,-1.9
2023-03-29T05:08:01.391Z,-2
2023-03-29T05:09:02.134Z,-1.8
2023-03-29T05:10:02.006Z,-1.9
2023-03-29T05:11:02.099Z,-1.8
2023-03-29T05:12:01.484Z,-1.8
2023-03-29T05:13:01.309Z,-1.8
2023-03-29T05:14:02.337Z,-1.9
2023-03-29T05:15:02.204Z,-1.9
2023-03-29T05:16:02.334Z,-1.8
2023-03-29T05:17:01.958Z,-1.8
2023-03-29T05:18:02.057Z,-1.7
2023-03-29T05:19:01.916Z,-1.8
2023-03-29T05:20:01.865Z,-1.8
2023-03-29T05:21:02.026Z,-1.7
2023-03-29T05:22:01.366Z,-1.8
2023-03-29T05:23:01.425Z,-1.7
2023-03-29T05:24:02.404Z,-1.6
2023-03-29T05:25:02.263Z,-1.5
2023-03-29T05:26:02.275Z,-1.6
2023-03-29T05:27:02.245Z,-1.7
2023-03-29T05:28:02.233Z,-1.5
2023-03-29T05:29:02.115Z,-1.5
2023-03-29T05:30:02.232Z,-1.4
2023-03-29T05:31:02.229Z,-1.4
2023-03-29T05:32:01.612Z,-1.2
2023-03-29T05:33:01.826Z,-1.2
2023-03-29T05:34:01.694Z,-1.1
2023-03-29T05:35:01.672Z,-1.1
2023-03-29T05:36:01.541Z,-1.2
2023-03-29T05:37:01.601Z,-1.2
2023-03-29T05:38:01.426Z,-1.2
2023-03-29T05:39:01.496Z,-1.1
2023-03-29T05:40:05.483Z,-1
2023-03-29T05:41:02.214Z,-1.1
2023-03-29T05:42:01.624Z,-1.1
2023-03-29T05:43:01.492Z,-1
2023-03-29T05:44:01.593Z,-1
2023-03-29T05:45:01.434Z,-0.9
2023-03-29T05:46:01.474Z,-0.8
2023-03-29T05:47:02.270Z,-0.8
2023-03-29T05:48:02.248Z,-0.7
2023-03-29T05:49:02.172Z,-0.8
2023-03-29T05:50:02.070Z,-0.7
2023-03-29T05:51:02.292Z,-0.8
2023-03-29T05:52:01.547Z,-0.8
2023-03-29T05:53:01.612Z,-0.7
2023-03-29T05:54:01.399Z,-0.7
2023-03-29T05:55:01.478Z,-0.5
2023-03-29T05:56:01.323Z,-0.6
2023-03-29T05:57:02.341Z,-0.5
2023-03-29T05:58:02.214Z,-0.6
2023-03-29T05:59:02.224Z,-0.6
2023-03-29T06:00:02.213Z,-0.5
2023-03-29T06:01:02.354Z,-0.5
2023-03-29T06:02:01.862Z,-0.5
2023-03-29T06:03:13.549Z,-0.4
2023-03-29T06:04:01.613Z,-0.5
2023-03-29T06:05:01.773Z,-0.3
2023-03-29T06:06:01.766Z,-0.4
2023-03-29T06:07:01.657Z,-0.3
2023-03-29T06:08:01.679Z,-0.3
2023-03-29T06:09:01.529Z,-0.2
2023-03-29T06:10:01.585Z,-0.3
2023-03-29T06:11:03.941Z,-0.3
2023-03-29T06:12:02.296Z,-0.2
2023-03-29T06:13:03.492Z,-0.1
2023-03-29T06:14:02.154Z,-0.3
2023-03-29T06:15:02.161Z,-0.2
2023-03-29T06:16:02.116Z,0
2023-03-29T06:17:02.068Z,-0.2
2023-03-29T06:18:02.113Z,-0.2
2023-03-29T06:19:01.981Z,-0.2
2023-03-29T06:20:01.921Z,-0.1
2023-03-29T06:21:02.112Z,0.1
2023-03-29T06:22:01.781Z,0
2023-03-29T06:23:01.843Z,0.1
2023-03-29T06:24:01.694Z,0.3
2023-03-29T06:25:01.931Z,0.2
2023-03-29T06:26:01.986Z,0.2
2023-03-29T06:27:01.838Z,0
2023-03-29T06:28:01.777Z,0
2023-03-29T06:29:01.771Z,0.2
2023-03-29T06:30:01.621Z,0.2
2023-03-29T06:31:01.972Z,0.2
2023-03-29T06:32:01.541Z,0.2
2023-03-29T06:33:01.593Z,0.2
2023-03-29T06:34:01.428Z,0.2
2023-03-29T06:35:01.495Z,0.3
2023-03-29T06:36:01.406Z,0.2
2023-03-29T06:37:01.376Z,0.4
2023-03-29T06:38:02.316Z,0.5
2023-03-29T06:39:02.200Z,0.5
2023-03-29T06:40:02.267Z,0.4
2023-03-29T06:41:02.249Z,0.6
2023-03-29T06:42:07.414Z,0.7
2023-03-29T06:43:01.324Z,0.9
2023-03-29T06:44:01.360Z,0.8
2023-03-29T06:45:02.341Z,0.7
2023-03-29T06:46:02.344Z,0.8
2023-03-29T06:47:02.133Z,0.9
2023-03-29T06:48:02.376Z,0.9
2023-03-29T06:49:02.199Z,1
2023-03-29T06:50:02.270Z,1
2023-03-29T06:51:02.339Z,0.9
2023-03-29T06:52:01.854Z,1
2023-03-29T06:53:01.700Z,1
2023-03-29T06:54:01.743Z,1
2023-03-29T06:55:01.663Z,0.9
2023-03-29T06:56:01.559Z,1.1
2023-03-29T06:57:01.524Z,1.1
2023-03-29T06:58:02.598Z,1.2
2023-03-29T06:59:01.648Z,1.3
2023-03-29T07:00:01.722Z,1.2
2023-03-29T07:01:01.644Z,1.4
2023-03-29T07:02:01.659Z,1.5
2023-03-29T07:03:01.717Z,1.5
2023-03-29T07:04:01.656Z,1.6
2023-03-29T07:05:01.615Z,1.7
2023-03-29T07:06:01.462Z,1.8
2023-03-29T07:07:01.770Z,1.7
2023-03-29T07:08:01.501Z,1.8
2023-03-29T07:09:01.778Z,2
2023-03-29T07:10:01.512Z,2
2023-03-29T07:11:01.746Z,2.1
2023-03-29T07:12:01.905Z,2.1
2023-03-29T07:13:01.889Z,2
2023-03-29T07:14:01.951Z,2
2023-03-29T07:15:01.806Z,1.9
2023-03-29T07:16:01.786Z,1.9
2023-03-29T07:17:01.931Z,2.1
2023-03-29T07:18:02.014Z,2.2
2023-03-29T07:19:01.907Z,2.1
2023-03-29T07:20:01.965Z,2.2
2023-03-29T07:21:01.993Z,2.1
2023-03-29T07:22:01.497Z,2
2023-03-29T07:23:01.683Z,2
2023-03-29T07:24:01.382Z,2.1
2023-03-29T07:25:01.399Z,2
2023-03-29T07:26:01.317Z,2.1
2023-03-29T07:27:04.369Z,2.1
2023-03-29T07:28:01.766Z,2.2
2023-03-29T07:29:01.821Z,2.1
2023-03-29T07:30:01.609Z,2.2
2023-03-29T07:31:02.162Z,2.3
2023-03-29T07:32:01.644Z,2.2
2023-03-29T07:33:01.807Z,2.5
2023-03-29T07:34:01.846Z,2.4
2023-03-29T07:35:01.792Z,2.7
2023-03-29T07:36:01.940Z,2.8
2023-03-29T07:37:01.836Z,2.7
2023-03-29T07:38:01.751Z,2.8
2023-03-29T07:39:01.889Z,2.7
2023-03-29T07:40:01.764Z,2.9
2023-03-29T07:41:01.842Z,2.7
2023-03-29T07:42:02.333Z,2.8
2023-03-29T07:43:02.212Z,2.8
2023-03-29T07:44:03.322Z,3.1
2023-03-29T07:45:02.110Z,2.8
2023-03-29T07:46:02.256Z,3
2023-03-29T07:47:02.072Z,3
2023-03-29T07:48:02.169Z,3.1
2023-03-29T07:49:01.986Z,3
2023-03-29T07:50:01.956Z,2.9
2023-03-29T07:51:02.209Z,3
2023-03-29T07:52:01.553Z,3.1
2023-03-29T07:53:01.603Z,3.4
2023-03-29T07:54:01.548Z,2.9
2023-03-29T07:55:01.504Z,3.1
2023-03-29T07:56:01.401Z,3.2
2023-03-29T07:57:01.424Z,3.3
2023-03-29T07:58:02.382Z,3.5
2023-03-29T07:59:02.283Z,3.7
2023-03-29T08:00:02.331Z,3.7
2023-03-29T08:01:02.376Z,3.8
2023-03-29T08:02:02.131Z,3.7
2023-03-29T08:03:02.242Z,3.7
2023-03-29T08:04:02.262Z,3.8
2023-03-29T08:05:01.417Z,3.6
2023-03-29T08:06:02.375Z,3.9
2023-03-29T08:07:02.262Z,4.1
2023-03-29T08:08:02.319Z,3.8
2023-03-29T08:09:02.156Z,3.8
2023-03-29T08:10:02.295Z,4.1
2023-03-29T08:11:02.260Z,4.4
2023-03-29T08:12:01.634Z,4.3
2023-03-29T08:13:01.519Z,4.5
2023-03-29T08:14:01.545Z,4.5
2023-03-29T08:15:01.410Z,4.9
2023-03-29T08:16:01.456Z,5
2023-03-29T08:17:02.058Z,4.9
2023-03-29T08:18:02.155Z,4.5
2023-03-29T08:19:02.198Z,4.4
2023-03-29T08:20:02.065Z,4.5
2023-03-29T08:21:02.345Z,4.4
2023-03-29T08:22:02.301Z,4.4
2023-03-29T08:23:02.147Z,4.6
2023-03-29T08:24:02.222Z,5.1
2023-03-29T08:25:02.118Z,4.9
2023-03-29T08:26:02.139Z,5
2023-03-29T08:27:02.026Z,5.1
2023-03-29T08:28:01.965Z,5.1
2023-03-29T08:29:02.033Z,5.3
2023-03-29T08:30:01.856Z,4.9
2023-03-29T08:31:01.993Z,4.9
2023-03-29T08:32:02.252Z,4.7
2023-03-29T08:33:02.198Z,4.7
2023-03-29T08:34:02.111Z,4.9
2023-03-29T08:35:02.220Z,4.9
2023-03-29T08:36:02.183Z,5.4
2023-03-29T08:37:02.280Z,5.1
2023-03-29T08:38:02.237Z,5
2023-03-29T08:39:02.140Z,5
2023-03-29T08:40:02.112Z,5.3
2023-03-29T08:41:02.281Z,5.2
2023-03-29T08:42:01.503Z,5.1
2023-03-29T08:43:01.563Z,5.3
2023-03-29T08:44:01.470Z,5.1
2023-03-29T08:45:01.508Z,5.4
2023-03-29T08:46:01.355Z,5.2
2023-03-29T08:47:02.296Z,5.4
2023-03-29T08:48:02.403Z,5
2023-03-29T08:49:01.266Z,5.3
2023-03-29T08:50:02.275Z,5.2
2023-03-29T08:51:02.424Z,5.3
2023-03-29T08:52:01.901Z,5.3
2023-03-29T08:53:01.990Z,5.7
2023-03-29T08:54:01.873Z,5.4
2023-03-29T08:55:01.878Z,5.2
2023-03-29T08:56:01.869Z,5.3
2023-03-29T08:57:01.774Z,5.1
2023-03-29T08:58:01.776Z,5.5
2023-03-29T08:59:01.839Z,5.6
2023-03-29T09:00:02.871Z,5.7
2023-03-29T09:01:02.022Z,5.9
2023-03-29T09:02:02.138Z,5.9
2023-03-29T09:03:02.317Z,5.9
2023-03-29T09:04:01.430Z,5.6
2023-03-29T09:05:01.425Z,5.9
2023-03-29T09:06:02.532Z,6.1
2023-03-29T09:07:02.253Z,6.3
2023-03-29T09:08:02.238Z,6.3
2023-03-29T09:09:02.147Z,6.3
2023-03-29T09:10:02.162Z,6.9
2023-03-29T09:11:02.193Z,6.8
2023-03-29T09:12:01.711Z,6.9
2023-03-29T09:13:01.555Z,6.8
2023-03-29T09:14:01.830Z,7.2
2023-03-29T09:15:01.856Z,6.7
2023-03-29T09:16:01.733Z,6.7
2023-03-29T09:17:01.673Z,6.7
2023-03-29T09:18:01.805Z,6.9
2023-03-29T09:19:01.574Z,6.9
2023-03-29T09:20:01.573Z,6.6
2023-03-29T09:21:01.633Z,6.5
2023-03-29T09:22:01.973Z,7
2023-03-29T09:23:01.973Z,6.6
2023-03-29T09:24:01.859Z,6.6
2023-03-29T09:25:01.836Z,7.1
2023-03-29T09:26:01.895Z,6.9
2023-03-29T09:27:01.733Z,6.7
2023-03-29T09:28:01.788Z,6.6
2023-03-29T09:29:01.673Z,6.4
2023-03-29T09:30:01.825Z,6.9
2023-03-29T09:31:01.855Z,6.6
2023-03-29T09:32:02.103Z,6.5
2023-03-29T09:33:02.167Z,7.1
2023-03-29T09:34:01.999Z,7.8
2023-03-29T09:35:02.001Z,8.1
2023-03-29T09:36:01.923Z,8.1
2023-03-29T09:37:01.837Z,7.9
2023-03-29T09:38:01.893Z,7.3
2023-03-29T09:39:01.774Z,7.8
2023-03-29T09:40:03.878Z,8
2023-03-29T09:41:02.027Z,7.6
2023-03-29T09:42:01.362Z,8.1
2023-03-29T09:43:01.462Z,8.1
2023-03-29T09:44:01.303Z,7.4
2023-03-29T09:45:02.400Z,7.8
2023-03-29T09:46:02.288Z,8.3
2023-03-29T09:47:01.414Z,8.5
2023-03-29T09:48:01.484Z,8.6
2023-03-29T09:49:01.321Z,8.2
2023-03-29T09:50:02.417Z,7.6
2023-03-29T09:51:02.364Z,7.9
2023-03-29T09:52:01.651Z,8.1
2023-03-29T09:53:01.454Z,8.2
2023-03-29T09:54:01.484Z,8.7
2023-03-29T09:55:01.365Z,9
2023-03-29T09:56:01.890Z,9
2023-03-29T09:57:02.003Z,8.5
2023-03-29T09:58:01.798Z,9
2023-03-29T09:59:01.738Z,8.3
2023-03-29T10:00:03.316Z,8.3
2023-03-29T10:01:02.447Z,8.6
2023-03-29T10:02:01.544Z,8.4
2023-03-29T10:03:01.620Z,8.1
2023-03-29T10:04:01.501Z,8.1
2023-03-29T10:05:01.574Z,9.2
2023-03-29T10:06:01.408Z,9.3
2023-03-29T10:07:01.455Z,9.1
2023-03-29T10:08:01.331Z,9.5
2023-03-29T10:09:02.360Z,9.5
2023-03-29T10:10:02.177Z,9.9
2023-03-29T10:11:02.400Z,9.4
2023-03-29T10:12:01.589Z,9.8
2023-03-29T10:13:01.644Z,9.4
2023-03-29T10:14:01.511Z,9.4
2023-03-29T10:15:01.532Z,8.9
2023-03-29T10:16:01.409Z,9
2023-03-29T10:17:01.436Z,9.1
2023-03-29T10:18:01.507Z,9.2
2023-03-29T10:19:01.605Z,9
2023-03-29T10:20:03.854Z,9.2
2023-03-29T10:21:02.694Z,9.3
2023-03-29T10:22:01.411Z,9
2023-03-29T10:23:01.417Z,9
2023-03-29T10:24:01.296Z,9.5
2023-03-29T10:25:02.399Z,9.7
2023-03-29T10:26:02.277Z,9.3
2023-03-29T10:27:02.305Z,9.3
2023-03-29T10:28:02.171Z,9.4
2023-03-29T10:29:02.229Z,9.4
2023-03-29T10:30:02.094Z,9.3
2023-03-29T10:31:02.482Z,8.8
2023-03-29T10:32:01.790Z,8.8
2023-03-29T10:33:01.855Z,9.3
2023-03-29T10:34:01.673Z,9.5
2023-03-29T10:35:01.713Z,8.6
2023-03-29T10:36:01.586Z,9.5
2023-03-29T10:37:01.614Z,9.4
2023-03-29T10:38:01.481Z,8.9
2023-03-29T10:39:03.614Z,9.3
2023-03-29T10:40:01.894Z,10.4
2023-03-29T10:41:01.987Z,10
2023-03-29T10:42:02.388Z,8.9
2023-03-29T10:43:02.277Z,9.9
2023-03-29T10:44:02.293Z,9.7
2023-03-29T10:45:02.224Z,9.5
2023-03-29T10:46:02.254Z,10.3
2023-03-29T10:47:02.125Z,10.4
2023-03-29T10:48:02.247Z,10
2023-03-29T10:49:02.110Z,10.8
2023-03-29T10:50:02.163Z,11.1
2023-03-29T10:51:02.256Z,10.8
2023-03-29T10:52:01.734Z,10.6
2023-03-29T10:53:01.590Z,10.4
2023-03-29T10:54:01.640Z,10.1
2023-03-29T10:55:01.535Z,10.3
2023-03-29T10:56:01.533Z,10.8
2023-03-29T10:57:01.404Z,10.5
2023-03-29T10:58:01.398Z,10.1
2023-03-29T10:59:01.268Z,10.5
2023-03-29T11:00:02.340Z,10.3
2023-03-29T11:01:02.298Z,10.4
2023-03-29T11:02:01.814Z,11.1
2023-03-29T11:03:01.907Z,10.4
2023-03-29T11:04:01.952Z,9.9
2023-03-29T11:05:02.058Z,9.9
2023-03-29T11:06:02.068Z,9.8
2023-03-29T11:07:01.992Z,9.8
2023-03-29T11:08:01.941Z,10.5
2023-03-29T11:09:02.092Z,9.9
2023-03-29T11:10:01.844Z,9.9
2023-03-29T11:11:02.012Z,10.4
2023-03-29T11:12:12.533Z,10
2023-03-29T11:13:02.067Z,10
2023-03-29T11:14:02.021Z,10.3
2023-03-29T11:15:02.022Z,10.7
2023-03-29T11:16:01.932Z,10.3
2023-03-29T11:17:01.882Z,10.5
2023-03-29T11:18:01.963Z,10.6
2023-03-29T11:19:01.765Z,10
2023-03-29T11:20:03.765Z,10.6
2023-03-29T11:21:02.042Z,11
2023-03-29T11:22:01.516Z,11.8
2023-03-29T11:23:01.533Z,11.5
2023-03-29T11:24:01.359Z,11.1
2023-03-29T11:25:01.417Z,10.8
2023-03-29T11:26:02.385Z,10.9
2023-03-29T11:27:02.264Z,9.9
2023-03-29T11:28:02.359Z,10.8
2023-03-29T11:29:02.272Z,11.2
2023-03-29T11:30:02.364Z,11.3
2023-03-29T11:31:02.498Z,11.1
2023-03-29T11:32:02.182Z,11.1
2023-03-29T11:33:02.259Z,10.9
2023-03-29T11:34:02.121Z,10.9
2023-03-29T11:35:02.243Z,10.8
2023-03-29T11:36:02.126Z,11.4
2023-03-29T11:37:02.174Z,11.3
2023-03-29T11:38:02.022Z,11.3
2023-03-29T11:39:02.090Z,11.2
2023-03-29T11:40:01.929Z,11.2
2023-03-29T11:41:02.001Z,10.9
2023-03-29T11:42:01.828Z,11.7
2023-03-29T11:43:01.682Z,11.6
2023-03-29T11:44:01.748Z,11.5
2023-03-29T11:45:01.621Z,12.2
2023-03-29T11:46:01.597Z,11.6
2023-03-29T11:47:01.670Z,11.8
2023-03-29T11:48:01.796Z,11.4
2023-03-29T11:49:01.960Z,10.7
2023-03-29T11:50:01.604Z,10.9
2023-03-29T11:51:01.743Z,10.8
2023-03-29T11:52:01.898Z,12.3
2023-03-29T11:53:01.863Z,11.5
2023-03-29T11:54:01.929Z,11.7
2023-03-29T11:55:01.726Z,11.9
2023-03-29T11:56:01.742Z,11.2
2023-03-29T11:57:01.636Z,11.5
2023-03-29T11:58:01.559Z,10.9
2023-03-29T11:59:01.614Z,11.6
2023-03-29T12:00:02.099Z,11.8
2023-03-29T12:01:02.258Z,11
2023-03-29T12:02:02.085Z,12.1
2023-03-29T12:03:02.166Z,11.1
2023-03-29T12:04:02.360Z,11
2023-03-29T12:05:01.275Z,10.9
2023-03-29T12:06:02.343Z,11.1
2023-03-29T12:07:02.163Z,10.9
2023-03-29T12:08:02.277Z,10.6
2023-03-29T12:09:02.114Z,10.5
2023-03-29T12:10:02.182Z,10.8
2023-03-29T12:11:02.194Z,11.1
2023-03-29T12:12:01.684Z,10.8
2023-03-29T12:13:01.525Z,11
2023-03-29T12:14:01.600Z,11.3
2023-03-29T12:15:01.453Z,11.1
2023-03-29T12:16:01.501Z,11.2
2023-03-29T12:17:01.448Z,11.6
2023-03-29T12:18:01.476Z,10.6
2023-03-29T12:19:01.286Z,10.7
2023-03-29T12:20:02.345Z,10.8
2023-03-29T12:21:02.218Z,10.7
2023-03-29T12:22:02.273Z,10.8
2023-03-29T12:23:02.172Z,10.8
2023-03-29T12:24:02.327Z,11.6
2023-03-29T12:25:02.253Z,10.7
2023-03-29T12:26:02.337Z,10.6
2023-03-29T12:27:02.231Z,10.8
2023-03-29T12:28:02.300Z,11.2
2023-03-29T12:29:02.268Z,11.2
2023-03-29T12:30:02.351Z,10.4
2023-03-29T12:31:02.369Z,11.1
2023-03-29T12:32:02.146Z,11.6
2023-03-29T12:33:02.228Z,10.9
2023-03-29T12:34:02.057Z,11
2023-03-29T12:35:02.111Z,10.4
2023-03-29T12:36:01.984Z,11.1
2023-03-29T12:37:01.965Z,10.8
2023-03-29T12:38:01.964Z,10.5
2023-03-29T12:39:01.815Z,10.7
2023-03-29T12:40:01.741Z,11
2023-03-29T12:41:02.004Z,11.2
2023-03-29T12:42:02.351Z,11.1
2023-03-29T12:43:02.207Z,11.6
2023-03-29T12:44:02.228Z,11.2
2023-03-29T12:45:02.161Z,11.4
2023-03-29T12:46:02.511Z,11.8
2023-03-29T12:47:01.919Z,11.8
2023-03-29T12:48:02.065Z,11.8
2023-03-29T12:49:01.811Z,11.3
2023-03-29T12:50:01.787Z,11.7
2023-03-29T12:51:01.850Z,12.1
2023-03-29T12:52:01.688Z,11.9
2023-03-29T12:53:01.724Z,12
2023-03-29T12:54:01.575Z,11.7
2023-03-29T12:55:01.573Z,11.8
2023-03-29T12:56:01.741Z,11.7
2023-03-29T12:57:01.618Z,11.1
2023-03-29T12:58:01.620Z,11.6
2023-03-29T12:59:01.506Z,11.5
2023-03-29T13:00:02.292Z,11.6
2023-03-29T13:01:04.319Z,11.9
2023-03-29T13:02:02.098Z,11.7
2023-03-29T13:03:02.088Z,12.1
2023-03-29T13:04:01.966Z,12.1
2023-03-29T13:05:01.979Z,11.5
2023-03-29T13:06:02.169Z,11.2
2023-03-29T13:07:01.658Z,10.9
2023-03-29T13:08:01.698Z,10.7
2023-03-29T13:09:01.566Z,10.7
2023-03-29T13:10:01.610Z,10.7
2023-03-29T13:11:01.457Z,11.2
2023-03-29T13:12:01.514Z,11.6
2023-03-29T13:13:01.369Z,11.3
2023-03-29T13:14:01.428Z,11.3
2023-03-29T13:15:02.359Z,11.4
2023-03-29T13:16:02.453Z,11.5
2023-03-29T13:17:12.250Z,11.2
2023-03-29T13:18:01.812Z,11.4
2023-03-29T13:19:01.765Z,10.7
2023-03-29T13:20:01.668Z,10.7
2023-03-29T13:21:01.692Z,10.6
2023-03-29T13:22:01.538Z,10.6
2023-03-29T13:23:01.599Z,11.1
2023-03-29T13:24:01.459Z,10.7
2023-03-29T13:25:01.523Z,11.2
2023-03-29T13:26:01.484Z,11.1
2023-03-29T13:27:02.068Z,10.9
2023-03-29T13:28:02.104Z,11.1
2023-03-29T13:29:01.947Z,11
2023-03-29T13:30:01.868Z,11.1
2023-03-29T13:31:01.929Z,11.3
2023-03-29T13:32:01.820Z,11.4
2023-03-29T13:33:01.789Z,11.2